Bladensburg, MD (20710)

5:54 PM EDT on July 27, 2016 (GMT -0400)
Riverdale Park | | Change Station

Elev 52 ft 38.96 °N, 76.94 °W | Updated 0 second ago

Clear
Clear
92.4 °F
Feels Like 98 °F
N
2.0
Wind Variable Wind from NNW
Gusts 5.0 mph

Today
High -- | Low -- °F
--% Chance of Precip.
Yesterday
High -- | Low -- °F
Precip. -- in
Pressure 29.89 in
Visibility 10.0 miles
Clouds Clear
Heat Index 98 °F
Dew Point 70 °F
Humidity 48%
Rainfall 0.00 in
Snow Depth Not available.
6:04 AM 8:23 PM
Last Quarter, 39% visible
METAR KCGS 272144Z AUTO 02003KT 10SM CLR 32/19 A2989 RMK AO1
Pressure 29.89 in
Visibility 10.0 miles
Clouds Clear
Heat Index 98 °F
Dew Point 70 °F
Humidity 48%
Rainfall 0.00 in
Snow Depth Not available.
6:04 AM 8:23 PM
Last Quarter, 39% visible
METAR KCGS 272144Z AUTO 02003KT 10SM CLR 32/19 A2989 RMK AO1

10-Day Weather Forecast

Almanac

Astronomy

Jul. 27, 2016 Rise Set
Actual Time
Civil Twilight
Nautical Twilight
Astronomical Twilight
Moon
Length of Visible Light
Length of Day
Tomorrow will be .
, % of the Moon is Illuminated

Today's Extremes

State Highs State Lows

Community

WunderPhotos

Upload Photos

1,927,944 photos uploaded!

WunderBlog® & News

Nearby

Air Quality

  Air Quality AQ Index Pollutant
Not available.

Snow Depth

Station Depth Elevation

Earthquake Activity

City Distance Mag. Time & Date
Minimum magnitude displayed is 2.5.

Coastal Water Temperatures

Place Temperature

Stations

Nearby Weather Stations

Station Location Temp. Windchill Dew Point Humidity Wind Precip. Elev Updated Type
                   

Watches & Warnings

There are currently no watches in effect.